Bock, Minnesota
Current Conditions -  °F | °C
As of 3:20 PM on Monday 24 Nov 2014 (Local Time) from KJMR Reporting Station
Overcast Overcast  
Wind Chill:   Ceiling: 2100
Heat Index: 19°   Visibility: 10mi
Dew Point: 12°   Wind: 22mph
Humidity: 74%   Direction: 330°NNW
Pressure: 29.58"   Gusts: 35mph
Location:  45.78°N, 93.56°W
Report Text: KJMR 242120Z AUTO 33019G30KT 10SM OVC021 M07/M11 A2958 RMK AO2
Loading
Personal Weather Stations






























Interactive Weather Map New forecast layout! Learn more

10-Day Weather Forecast

Advertisements
Track Severe Weather on mobile